createdAt,value
2023-03-29T00:02:04.839Z,6.60
2023-03-29T00:04:31.790Z,6.50
2023-03-29T00:07:03.991Z,6.50
2023-03-29T00:09:33.065Z,6.50
2023-03-29T00:12:01.563Z,6.40
2023-03-29T00:14:30.779Z,6.50
2023-03-29T00:16:59.018Z,6.50
2023-03-29T00:19:26.445Z,6.50
2023-03-29T00:21:53.332Z,6.50
2023-03-29T00:24:21.468Z,6.40
2023-03-29T00:26:48.660Z,6.40
2023-03-29T00:29:15.659Z,6.40
2023-03-29T00:31:44.500Z,6.30
2023-03-29T00:34:11.686Z,6.30
2023-03-29T00:36:43.080Z,6.30
2023-03-29T00:39:09.829Z,6.30
2023-03-29T00:41:36.699Z,6.30
2023-03-29T00:44:05.104Z,6.20
2023-03-29T00:46:32.362Z,6.20
2023-03-29T00:49:07.249Z,6.10
2023-03-29T00:51:36.730Z,6.10
2023-03-29T00:54:08.307Z,6.00
2023-03-29T00:56:39.913Z,6.00
2023-03-29T00:59:20.669Z,6.00
2023-03-29T01:02:22.186Z,5.90
2023-03-29T01:05:00.833Z,5.90
2023-03-29T01:07:36.110Z,5.80
2023-03-29T01:10:14.398Z,5.80
2023-03-29T01:12:46.933Z,5.80
2023-03-29T01:15:19.318Z,5.70
2023-03-29T01:17:50.872Z,5.70
2023-03-29T01:20:30.785Z,5.70
2023-03-29T01:23:26.966Z,5.60
2023-03-29T01:26:07.434Z,5.50
2023-03-29T01:28:44.287Z,5.60
2023-03-29T01:31:17.620Z,5.60
2023-03-29T01:33:49.322Z,5.60
2023-03-29T01:36:27.175Z,5.60
2023-03-29T01:38:59.515Z,5.60
2023-03-29T01:41:49.748Z,5.70
2023-03-29T01:44:44.544Z,5.50
2023-03-29T01:47:19.083Z,5.50
2023-03-29T01:50:13.433Z,5.50
2023-03-29T01:52:53.015Z,5.40
2023-03-29T01:55:24.805Z,5.40
2023-03-29T01:57:54.173Z,5.40
2023-03-29T02:00:25.739Z,5.30
2023-03-29T02:02:56.930Z,5.40
2023-03-29T02:05:26.547Z,5.30
2023-03-29T02:07:55.036Z,5.30
2023-03-29T02:10:23.495Z,5.30
2023-03-29T02:12:50.777Z,5.30
2023-03-29T02:15:20.046Z,5.30
2023-03-29T02:17:49.424Z,5.30
2023-03-29T02:20:30.239Z,5.30
2023-03-29T02:23:15.624Z,5.30
2023-03-29T02:25:45.569Z,5.30
2023-03-29T02:28:13.314Z,5.30
2023-03-29T02:30:59.834Z,5.20
2023-03-29T02:33:45.579Z,5.20
2023-03-29T02:36:24.414Z,5.20
2023-03-29T02:38:52.762Z,5.20
2023-03-29T02:41:20.689Z,5.10
2023-03-29T02:43:48.540Z,5.10
2023-03-29T02:46:16.886Z,5.10
2023-03-29T02:48:46.603Z,5.10
2023-03-29T02:51:22.025Z,5.00
2023-03-29T02:54:00.206Z,5.00
2023-03-29T02:56:27.094Z,5.00
2023-03-29T02:58:53.986Z,5.00
2023-03-29T03:01:20.869Z,4.90
2023-03-29T03:03:48.298Z,5.00
2023-03-29T03:06:15.305Z,5.00
2023-03-29T03:08:42.357Z,5.00
2023-03-29T03:11:09.170Z,5.00
2023-03-29T03:13:36.340Z,5.00
2023-03-29T03:16:03.281Z,5.10
2023-03-29T03:18:30.143Z,5.10
2023-03-29T03:21:04.618Z,5.10
2023-03-29T03:23:32.215Z,5.10
2023-03-29T03:25:59.194Z,5.20
2023-03-29T03:28:27.371Z,5.20
2023-03-29T03:30:54.422Z,5.20
2023-03-29T03:33:21.303Z,5.10
2023-03-29T03:35:48.171Z,5.20
2023-03-29T03:38:15.326Z,5.20
2023-03-29T03:40:42.618Z,5.20
2023-03-29T03:43:09.741Z,5.10
2023-03-29T03:45:36.556Z,5.10
2023-03-29T03:48:03.554Z,5.10
2023-03-29T03:50:30.338Z,5.10
2023-03-29T03:52:57.306Z,5.10
2023-03-29T03:55:24.130Z,5.30
2023-03-29T03:57:52.048Z,5.10
2023-03-29T04:00:21.655Z,5.10
2023-03-29T04:02:48.928Z,5.20
2023-03-29T04:05:17.205Z,5.20
2023-03-29T04:07:44.060Z,5.20
2023-03-29T04:10:11.233Z,5.20
2023-03-29T04:12:39.030Z,5.30
2023-03-29T04:15:06.585Z,5.30
2023-03-29T04:17:33.539Z,5.30
2023-03-29T04:20:02.298Z,5.30
2023-03-29T04:22:29.339Z,5.30
2023-03-29T04:24:56.235Z,5.30
2023-03-29T04:27:23.013Z,5.30
2023-03-29T04:29:49.787Z,5.30
2023-03-29T04:32:16.581Z,5.30
2023-03-29T04:34:43.319Z,5.40
2023-03-29T04:37:10.269Z,5.30
2023-03-29T04:39:38.003Z,5.40
2023-03-29T04:42:05.929Z,5.40
2023-03-29T04:44:33.980Z,5.40
2023-03-29T04:47:01.498Z,5.30
2023-03-29T04:49:29.033Z,5.40
2023-03-29T04:51:55.933Z,5.40
2023-03-29T04:54:22.955Z,5.40
2023-03-29T04:56:52.223Z,5.40
2023-03-29T04:59:19.173Z,5.40
2023-03-29T05:01:45.969Z,5.40
2023-03-29T05:04:14.136Z,5.40
2023-03-29T05:06:42.276Z,5.50
2023-03-29T05:09:10.630Z,5.40
2023-03-29T05:11:37.399Z,5.30
2023-03-29T05:14:07.405Z,5.40
2023-03-29T05:16:34.742Z,5.40
2023-03-29T05:19:01.793Z,5.40
2023-03-29T05:21:28.699Z,5.30
2023-03-29T05:23:55.874Z,5.30
2023-03-29T05:26:23.615Z,5.40
2023-03-29T05:28:50.939Z,5.40
2023-03-29T05:31:18.538Z,5.40
2023-03-29T05:33:47.695Z,5.40
2023-03-29T05:36:16.394Z,5.40
2023-03-29T05:38:49.978Z,5.40
2023-03-29T05:41:17.983Z,5.50
2023-03-29T05:43:44.808Z,5.50
2023-03-29T05:46:12.645Z,5.50
2023-03-29T05:48:39.464Z,5.60
2023-03-29T05:51:06.461Z,5.60
2023-03-29T05:53:33.382Z,5.60
2023-03-29T05:56:00.208Z,5.60
2023-03-29T05:58:28.453Z,5.60
2023-03-29T06:00:55.660Z,5.70
2023-03-29T06:03:27.658Z,5.80
2023-03-29T06:05:59.213Z,5.80
2023-03-29T06:08:27.869Z,5.90
2023-03-29T06:11:13.461Z,6.00
2023-03-29T06:13:41.507Z,6.10
2023-03-29T06:16:10.083Z,6.20
2023-03-29T06:18:40.222Z,6.30
2023-03-29T06:21:09.356Z,6.50
2023-03-29T06:23:36.775Z,6.60
2023-03-29T06:26:05.133Z,6.70
2023-03-29T06:28:31.898Z,6.60
2023-03-29T06:31:02.883Z,6.60
2023-03-29T06:33:32.453Z,6.60
2023-03-29T06:35:59.375Z,6.40
2023-03-29T06:38:28.317Z,6.70
2023-03-29T06:41:11.269Z,6.50
2023-03-29T06:43:38.829Z,6.50
2023-03-29T06:46:11.925Z,6.60
2023-03-29T06:48:40.231Z,6.60
2023-03-29T06:51:07.709Z,6.60
2023-03-29T06:53:35.010Z,6.60
2023-03-29T06:56:05.454Z,6.60
2023-03-29T06:58:32.556Z,6.80
2023-03-29T07:01:07.043Z,6.60
2023-03-29T07:03:35.483Z,6.70
2023-03-29T07:06:10.111Z,6.80
2023-03-29T07:08:43.855Z,6.80
2023-03-29T07:11:13.501Z,6.90
2023-03-29T07:13:43.696Z,6.80
2023-03-29T07:16:12.915Z,6.90
2023-03-29T07:18:44.330Z,7.00
2023-03-29T07:21:12.784Z,7.00
2023-03-29T07:23:40.762Z,7.00
2023-03-29T07:26:08.240Z,7.10
2023-03-29T07:28:37.434Z,7.10
2023-03-29T07:31:10.841Z,7.10
2023-03-29T07:33:38.233Z,7.10
2023-03-29T07:36:06.431Z,7.10
2023-03-29T07:38:33.374Z,7.10
2023-03-29T07:41:03.285Z,7.10
2023-03-29T07:43:30.364Z,7.20
2023-03-29T07:46:01.927Z,7.20
2023-03-29T07:48:29.822Z,7.30
2023-03-29T07:50:57.455Z,7.30
2023-03-29T07:53:24.546Z,7.40
2023-03-29T07:55:57.792Z,7.50
2023-03-29T07:58:24.722Z,7.40
2023-03-29T08:00:51.676Z,7.40
2023-03-29T08:03:18.721Z,7.40
2023-03-29T08:05:45.796Z,7.30
2023-03-29T08:08:14.202Z,7.40
2023-03-29T08:10:42.715Z,7.50
2023-03-29T08:13:12.476Z,7.50
2023-03-29T08:15:40.030Z,7.50
2023-03-29T08:18:08.065Z,7.50
2023-03-29T08:20:34.989Z,7.50
2023-03-29T08:23:01.854Z,7.50
2023-03-29T08:25:28.737Z,7.60
2023-03-29T08:27:55.613Z,7.50
2023-03-29T08:30:22.525Z,7.60
2023-03-29T08:32:52.121Z,7.50
2023-03-29T08:35:21.280Z,7.60
2023-03-29T08:37:48.107Z,7.60
2023-03-29T08:40:25.028Z,7.50
2023-03-29T08:43:10.637Z,7.60
2023-03-29T08:45:51.040Z,7.60
2023-03-29T08:48:23.948Z,7.60
2023-03-29T08:50:54.225Z,7.60
2023-03-29T08:53:31.465Z,7.70
2023-03-29T08:56:00.408Z,7.60
2023-03-29T08:58:31.537Z,7.70
2023-03-29T09:01:05.161Z,7.80
2023-03-29T09:04:04.888Z,7.80
2023-03-29T09:06:32.017Z,7.80
2023-03-29T09:08:59.209Z,7.70
2023-03-29T09:11:51.588Z,7.80
2023-03-29T09:14:37.293Z,7.80
2023-03-29T09:17:28.897Z,8.00
2023-03-29T09:20:11.211Z,8.10
2023-03-29T09:22:41.231Z,8.20
2023-03-29T09:25:29.354Z,8.20
2023-03-29T09:28:12.478Z,8.20
2023-03-29T09:30:50.728Z,8.20
2023-03-29T09:33:23.447Z,8.20
2023-03-29T09:35:57.488Z,8.20
2023-03-29T09:38:24.302Z,8.20
2023-03-29T09:40:59.337Z,8.30
2023-03-29T09:43:30.059Z,8.40
2023-03-29T09:46:00.732Z,8.50
2023-03-29T09:48:31.840Z,8.60
2023-03-29T09:51:00.884Z,8.70
2023-03-29T09:53:28.193Z,8.60
2023-03-29T09:55:55.451Z,8.60
2023-03-29T09:58:28.036Z,8.60
2023-03-29T10:00:59.383Z,8.50
2023-03-29T10:03:28.600Z,8.60
2023-03-29T10:05:59.116Z,8.70
2023-03-29T10:08:38.671Z,8.70
2023-03-29T10:11:37.071Z,8.70
2023-03-29T10:14:12.492Z,8.80
2023-03-29T10:16:47.618Z,8.80
2023-03-29T10:19:23.646Z,8.90
2023-03-29T10:21:52.797Z,8.80
2023-03-29T10:24:25.350Z,8.80
2023-03-29T10:26:56.973Z,8.90
2023-03-29T10:29:25.690Z,8.80
2023-03-29T10:31:53.196Z,8.90
2023-03-29T10:34:25.259Z,8.90
2023-03-29T10:36:58.946Z,9.00
2023-03-29T10:39:29.371Z,9.10
2023-03-29T10:41:58.134Z,9.20
2023-03-29T10:44:33.301Z,9.40
2023-03-29T10:47:19.622Z,9.60
2023-03-29T10:50:07.555Z,9.70
2023-03-29T10:52:34.353Z,9.90
2023-03-29T10:55:01.600Z,10.00
2023-03-29T10:57:47.540Z,10.00
2023-03-29T11:00:40.668Z,10.10
2023-03-29T11:03:37.601Z,10.10
2023-03-29T11:06:38.321Z,10.30
2023-03-29T11:09:30.993Z,10.30
2023-03-29T11:12:21.320Z,10.40
2023-03-29T11:15:03.477Z,10.50
2023-03-29T11:18:06.444Z,10.60
2023-03-29T11:20:41.970Z,10.90
2023-03-29T11:23:20.650Z,11.00
2023-03-29T11:26:13.025Z,11.00
2023-03-29T11:28:53.537Z,11.10
2023-03-29T11:31:40.729Z,11.20
2023-03-29T11:34:15.517Z,11.30
2023-03-29T11:36:45.500Z,11.20
2023-03-29T11:39:28.331Z,11.00
2023-03-29T11:42:07.981Z,10.80
2023-03-29T11:44:36.761Z,11.00
2023-03-29T11:47:15.120Z,10.70
2023-03-29T11:49:57.910Z,10.50
2023-03-29T11:52:27.733Z,10.40
2023-03-29T11:55:15.237Z,10.40
2023-03-29T11:57:52.730Z,10.30
2023-03-29T12:00:35.141Z,10.30
2023-03-29T12:03:48.842Z,10.30
2023-03-29T12:06:37.400Z,10.10
2023-03-29T12:09:21.110Z,10.00
2023-03-29T12:11:54.800Z,10.00
2023-03-29T12:14:51.772Z,10.00
2023-03-29T12:17:29.108Z,10.10
2023-03-29T12:20:13.976Z,10.00
2023-03-29T12:22:41.508Z,10.00
2023-03-29T12:25:17.818Z,10.00
2023-03-29T12:28:19.566Z,10.00
2023-03-29T12:31:21.329Z,10.10
2023-03-29T12:34:25.189Z,10.20
2023-03-29T12:37:14.137Z,10.20
2023-03-29T12:39:41.151Z,10.10
2023-03-29T12:42:17.100Z,10.00
2023-03-29T12:44:50.329Z,10.00
2023-03-29T12:47:26.719Z,10.00
2023-03-29T12:49:59.366Z,10.10
2023-03-29T12:52:35.776Z,10.10
2023-03-29T12:55:16.851Z,10.10
2023-03-29T12:57:58.408Z,10.10
2023-03-29T13:00:39.767Z,10.20
2023-03-29T13:03:24.909Z,10.20
2023-03-29T13:06:08.003Z,10.30
2023-03-29T13:08:41.990Z,10.20
2023-03-29T13:11:32.787Z,10.20
2023-03-29T13:14:03.730Z,10.20
2023-03-29T13:16:34.912Z,10.00
2023-03-29T13:19:27.433Z,10.10
2023-03-29T13:22:23.283Z,10.10
2023-03-29T13:25:01.761Z,10.10
2023-03-29T13:27:57.605Z,10.10
2023-03-29T13:30:45.368Z,10.20
2023-03-29T13:33:46.516Z,10.20
2023-03-29T13:36:39.285Z,10.20
2023-03-29T13:39:07.437Z,10.10
2023-03-29T13:41:40.331Z,10.00
2023-03-29T13:44:22.605Z,10.00
2023-03-29T13:47:01.666Z,10.10
2023-03-29T13:49:31.686Z,10.00
2023-03-29T13:52:17.166Z,10.10
2023-03-29T13:54:53.112Z,10.10
2023-03-29T13:57:25.295Z,10.10
2023-03-29T14:00:07.263Z,10.10
2023-03-29T14:02:45.548Z,10.10
2023-03-29T14:05:17.959Z,10.20
2023-03-29T14:07:53.571Z,10.30
2023-03-29T14:10:32.132Z,10.40
2023-03-29T14:13:04.665Z,10.40
2023-03-29T14:15:49.539Z,10.40
2023-03-29T14:18:21.898Z,10.40
2023-03-29T14:20:54.988Z,10.40
2023-03-29T14:23:31.805Z,10.40
2023-03-29T14:26:23.268Z,10.50
2023-03-29T14:28:58.486Z,10.40
2023-03-29T14:31:37.848Z,10.30
2023-03-29T14:34:11.220Z,10.40
2023-03-29T14:36:39.133Z,10.40
2023-03-29T14:39:10.499Z,10.50
2023-03-29T14:41:38.303Z,10.50
2023-03-29T14:44:07.657Z,10.60
2023-03-29T14:46:36.636Z,10.60
2023-03-29T14:49:05.135Z,10.60
2023-03-29T14:51:32.318Z,10.80
2023-03-29T14:54:02.825Z,10.70
2023-03-29T14:56:32.626Z,10.70
2023-03-29T14:59:02.598Z,10.80
2023-03-29T15:01:29.519Z,10.80
2023-03-29T15:04:02.010Z,10.90
2023-03-29T15:06:30.767Z,11.00
2023-03-29T15:09:05.866Z,11.00
2023-03-29T15:11:34.619Z,11.10
2023-03-29T15:14:08.763Z,11.00
2023-03-29T15:16:41.310Z,11.10
2023-03-29T15:19:15.965Z,11.10
2023-03-29T15:21:43.978Z,11.00
2023-03-29T15:24:29.516Z,11.00
2023-03-29T15:27:03.361Z,11.00
2023-03-29T15:29:42.136Z,11.00
2023-03-29T15:32:11.810Z,10.90
2023-03-29T15:34:38.949Z,10.80
2023-03-29T15:37:07.767Z,10.80
2023-03-29T15:39:44.795Z,10.80
2023-03-29T15:42:11.791Z,10.70
2023-03-29T15:44:39.308Z,10.80
2023-03-29T15:47:13.413Z,10.70
2023-03-29T15:49:40.347Z,10.70
2023-03-29T15:52:07.337Z,10.70
2023-03-29T15:54:35.027Z,10.70
2023-03-29T15:57:05.384Z,10.70
2023-03-29T15:59:38.931Z,10.60
2023-03-29T16:02:07.999Z,10.70
2023-03-29T16:04:35.138Z,10.70
2023-03-29T16:07:02.353Z,10.70
2023-03-29T16:09:29.726Z,10.80
2023-03-29T16:11:56.700Z,10.90
2023-03-29T16:14:30.513Z,10.80
2023-03-29T16:17:01.609Z,10.80
2023-03-29T16:19:31.253Z,10.80
2023-03-29T16:21:59.907Z,10.90
2023-03-29T16:24:30.159Z,10.90
2023-03-29T16:26:57.783Z,10.90
2023-03-29T16:29:25.731Z,10.90
2023-03-29T16:31:53.471Z,10.90
2023-03-29T16:34:21.790Z,10.90
2023-03-29T16:36:49.759Z,10.90
2023-03-29T16:39:18.284Z,11.00
2023-03-29T16:41:48.220Z,11.00
2023-03-29T16:44:23.628Z,11.00
2023-03-29T16:46:53.982Z,11.00
2023-03-29T16:49:21.663Z,11.00
2023-03-29T16:51:49.025Z,11.00
2023-03-29T16:54:17.305Z,11.00
2023-03-29T16:56:44.584Z,11.00
2023-03-29T16:59:12.262Z,11.00
2023-03-29T17:01:40.655Z,11.00
2023-03-29T17:04:08.262Z,11.00
2023-03-29T17:06:36.215Z,11.00
2023-03-29T17:09:05.284Z,11.00
2023-03-29T17:11:32.347Z,10.90
2023-03-29T17:14:00.219Z,11.00
2023-03-29T17:16:29.128Z,10.90
2023-03-29T17:19:00.311Z,10.90
2023-03-29T17:21:29.218Z,10.90
2023-03-29T17:23:56.114Z,10.80
2023-03-29T17:26:23.346Z,10.80
2023-03-29T17:28:50.518Z,10.80
2023-03-29T17:31:19.422Z,10.80
2023-03-29T17:33:47.567Z,10.80
2023-03-29T17:36:14.678Z,10.70
2023-03-29T17:38:42.966Z,10.70
2023-03-29T17:41:10.183Z,10.70
2023-03-29T17:43:37.057Z,10.70
2023-03-29T17:46:04.618Z,10.70
2023-03-29T17:48:32.965Z,10.70
2023-03-29T17:51:00.369Z,10.70
2023-03-29T17:53:27.538Z,10.60
2023-03-29T17:55:54.558Z,10.60
2023-03-29T17:58:21.775Z,10.50
2023-03-29T18:00:48.877Z,10.50
2023-03-29T18:03:16.012Z,10.60
2023-03-29T18:05:42.956Z,10.50
2023-03-29T18:08:10.049Z,10.50
2023-03-29T18:10:37.319Z,10.50
2023-03-29T18:13:04.226Z,10.50
2023-03-29T18:15:31.362Z,10.50
2023-03-29T18:17:58.280Z,10.50
2023-03-29T18:20:25.186Z,10.40
2023-03-29T18:22:52.083Z,10.40
2023-03-29T18:25:20.145Z,10.40
2023-03-29T18:27:47.229Z,10.40
2023-03-29T18:30:16.952Z,10.40
2023-03-29T18:32:44.220Z,10.40
2023-03-29T18:35:12.270Z,10.40
2023-03-29T18:37:41.361Z,10.30
2023-03-29T18:40:10.152Z,10.40
2023-03-29T18:42:37.168Z,10.40
2023-03-29T18:45:10.177Z,10.40
2023-03-29T18:47:37.561Z,10.40
2023-03-29T18:50:05.260Z,10.30
2023-03-29T18:52:32.376Z,10.30
2023-03-29T18:54:59.886Z,10.30
2023-03-29T18:57:28.004Z,10.30
2023-03-29T18:59:55.262Z,10.30
2023-03-29T19:02:25.452Z,10.30
2023-03-29T19:04:52.672Z,10.30
2023-03-29T19:07:21.873Z,10.30
2023-03-29T19:09:51.719Z,10.20
2023-03-29T19:12:18.836Z,10.20
2023-03-29T19:14:46.132Z,10.20
2023-03-29T19:17:14.703Z,10.20
2023-03-29T19:19:42.440Z,10.20
2023-03-29T19:22:09.617Z,10.20
2023-03-29T19:24:36.799Z,10.20
2023-03-29T19:27:04.241Z,10.20
2023-03-29T19:29:31.447Z,10.20
2023-03-29T19:31:58.502Z,10.20
2023-03-29T19:34:26.866Z,10.10
2023-03-29T19:36:55.214Z,10.10
2023-03-29T19:39:22.334Z,10.10
2023-03-29T19:41:49.587Z,10.10
2023-03-29T19:44:16.968Z,10.10
2023-03-29T19:46:44.087Z,10.20
2023-03-29T19:49:13.751Z,10.20
2023-03-29T19:51:42.016Z,10.20
2023-03-29T19:54:11.515Z,10.20
2023-03-29T19:56:38.712Z,10.20
2023-03-29T19:59:05.793Z,10.20
2023-03-29T20:01:33.271Z,10.20
2023-03-29T20:04:01.883Z,10.20
2023-03-29T20:06:29.027Z,10.20
2023-03-29T20:08:56.681Z,10.20
2023-03-29T20:11:24.590Z,10.20
2023-03-29T20:13:55.017Z,10.20
2023-03-29T20:16:25.862Z,10.20
2023-03-29T20:18:54.263Z,10.20
2023-03-29T20:21:21.426Z,10.20
2023-03-29T20:23:48.528Z,10.30
2023-03-29T20:26:15.645Z,10.20
2023-03-29T20:28:42.912Z,10.20
2023-03-29T20:31:13.268Z,10.20
2023-03-29T20:33:41.557Z,10.30
2023-03-29T20:36:09.136Z,10.30
2023-03-29T20:38:36.669Z,10.30
2023-03-29T20:41:05.637Z,10.30
2023-03-29T20:43:37.711Z,10.40
2023-03-29T20:46:14.572Z,10.40
2023-03-29T20:48:53.470Z,10.50
2023-03-29T20:51:22.807Z,10.50
2023-03-29T20:53:50.859Z,10.50
2023-03-29T20:56:19.152Z,10.60
2023-03-29T20:58:47.075Z,10.50
2023-03-29T21:01:14.471Z,10.50
2023-03-29T21:03:44.182Z,10.50
2023-03-29T21:06:14.244Z,10.50
2023-03-29T21:08:42.743Z,10.50
2023-03-29T21:11:13.252Z,10.50
2023-03-29T21:13:43.714Z,10.50
2023-03-29T21:16:13.913Z,10.50
2023-03-29T21:18:41.779Z,10.50
2023-03-29T21:21:09.928Z,10.50
2023-03-29T21:23:37.254Z,10.50
2023-03-29T21:26:06.784Z,10.50
2023-03-29T21:28:34.663Z,10.50
2023-03-29T21:31:08.444Z,10.50
2023-03-29T21:33:35.869Z,10.40
2023-03-29T21:36:02.770Z,10.50
2023-03-29T21:38:29.720Z,10.50
2023-03-29T21:40:58.071Z,10.40
2023-03-29T21:43:25.068Z,10.40
2023-03-29T21:45:52.048Z,10.40
2023-03-29T21:48:18.878Z,10.40
2023-03-29T21:50:49.967Z,10.40
2023-03-29T21:53:17.575Z,10.50
2023-03-29T21:55:44.513Z,10.40
2023-03-29T21:58:11.540Z,10.30
2023-03-29T22:00:39.591Z,10.30
2023-03-29T22:03:06.525Z,10.40
2023-03-29T22:05:33.637Z,10.30
2023-03-29T22:08:00.506Z,10.30
2023-03-29T22:10:27.636Z,10.40
2023-03-29T22:12:56.246Z,10.40
2023-03-29T22:15:23.035Z,10.40
2023-03-29T22:17:50.472Z,10.40
2023-03-29T22:20:18.541Z,10.40
2023-03-29T22:22:49.613Z,10.40
2023-03-29T22:25:17.687Z,10.40
2023-03-29T22:27:48.576Z,10.40
2023-03-29T22:30:17.097Z,10.30
2023-03-29T22:32:43.959Z,10.30
2023-03-29T22:35:10.940Z,10.30
2023-03-29T22:37:44.324Z,10.20
2023-03-29T22:40:12.151Z,10.40
2023-03-29T22:42:39.042Z,10.20
2023-03-29T22:45:06.647Z,10.30
2023-03-29T22:47:34.147Z,10.30
2023-03-29T22:50:01.206Z,10.30
2023-03-29T22:52:28.061Z,10.30
2023-03-29T22:54:54.913Z,10.40
2023-03-29T22:57:21.755Z,10.40
2023-03-29T22:59:48.658Z,10.40
2023-03-29T23:02:15.604Z,10.30
2023-03-29T23:04:42.524Z,10.50
2023-03-29T23:07:09.386Z,10.50
2023-03-29T23:09:36.658Z,10.50
2023-03-29T23:12:03.466Z,10.50
2023-03-29T23:14:30.235Z,10.50
2023-03-29T23:16:57.084Z,10.60
2023-03-29T23:19:23.864Z,10.60
2023-03-29T23:21:50.896Z,10.60
2023-03-29T23:24:19.135Z,10.60
2023-03-29T23:26:51.210Z,10.70
2023-03-29T23:29:18.314Z,10.90
2023-03-29T23:31:45.349Z,10.90
2023-03-29T23:34:13.470Z,10.80
2023-03-29T23:36:40.382Z,11.00
2023-03-29T23:39:08.075Z,11.00
2023-03-29T23:41:34.890Z,11.10
2023-03-29T23:44:03.635Z,11.00
2023-03-29T23:46:31.270Z,11.10
2023-03-29T23:48:58.353Z,11.10
2023-03-29T23:51:28.295Z,11.10
2023-03-29T23:53:56.452Z,11.20
2023-03-29T23:56:23.367Z,11.10
2023-03-29T23:58:50.383Z,11.10
